Time;durP1;ratioP1;P1;durP2;ratioP2;P2;SDS_P1;SDS_P2;PMS_P1;PMS_P2;Temp;Humidity;BMP_temperature;BMP_pressure;BME280_temperature;BME280_humidity;BME280_pressure;Samples;Min_cycle;Max_cycle;Signal;HPM_P1;HPM_P2
2022/04/13 00:01:52;;;;;;;13.73;6.73;;;14.20;99.90;;;;;;5060480;28;20433;-55
2022/04/13 00:04:18;;;;;;;11.40;5.80;;;14.10;99.90;;;;;;5057495;28;20899;-55
2022/04/13 00:06:44;;;;;;;11.98;6.47;;;14.10;99.90;;;;;;5061938;28;20412;-55
2022/04/13 00:09:10;;;;;;;10.65;6.00;;;14.00;99.90;;;;;;5057517;28;20379;-55
2022/04/13 00:11:36;;;;;;;11.73;6.18;;;14.10;99.90;;;;;;5059148;28;20394;-55
2022/04/13 00:14:03;;;;;;;12.70;6.20;;;14.20;99.90;;;;;;5058251;28;20397;-54
2022/04/13 00:16:29;;;;;;;11.27;5.60;;;14.20;99.90;;;;;;5062027;28;20461;-55
2022/04/13 00:18:55;;;;;;;12.73;6.75;;;14.20;99.90;;;;;;5062729;28;20380;-55
2022/04/13 00:21:21;;;;;;;12.45;7.07;;;14.20;99.90;;;;;;5057904;28;20417;-55
2022/04/13 00:23:47;;;;;;;11.32;6.18;;;14.20;99.90;;;;;;5059663;28;20403;-55
2022/04/13 00:26:13;;;;;;;12.87;7.20;;;14.10;99.90;;;;;;5059010;28;20408;-55
2022/04/13 00:28:38;;;;;;;12.25;6.47;;;14.00;99.90;;;;;;5060978;28;20387;-55
2022/04/13 00:31:04;;;;;;;12.23;6.70;;;14.10;99.90;;;;;;5058782;28;20829;-55
2022/04/13 00:33:30;;;;;;;13.18;6.60;;;14.00;99.90;;;;;;5061668;28;20445;-55
2022/04/13 00:35:55;;;;;;;12.98;7.18;;;14.10;99.90;;;;;;5059884;28;20419;-55
2022/04/13 00:38:22;;;;;;;11.03;6.53;;;14.10;99.90;;;;;;5061013;28;20396;-54
2022/04/13 00:40:49;;;;;;;11.13;5.90;;;14.20;99.90;;;;;;5044955;28;20397;-54
2022/04/13 00:43:14;;;;;;;12.65;7.15;;;14.30;99.90;;;;;;5060437;28;20373;-54
2022/04/13 00:45:47;;;;;;;13.27;6.80;;;14.30;99.90;;;;;;5065642;28;20449;-55
2022/04/13 00:48:26;;;;;;;13.75;6.90;;;14.30;99.90;;;;;;5042840;28;20396;-54
2022/04/13 00:50:52;;;;;;;12.30;6.80;;;14.20;99.90;;;;;;5060540;28;20446;-54
2022/04/13 00:53:19;;;;;;;12.63;6.40;;;14.10;99.90;;;;;;5065551;28;20406;-54
2022/04/13 00:55:48;;;;;;;13.65;7.90;;;14.10;99.90;;;;;;5061803;28;20378;-55
2022/04/13 00:58:17;;;;;;;12.32;7.30;;;14.10;99.90;;;;;;5059435;28;20376;-54
2022/04/13 01:00:51;;;;;;;14.43;7.70;;;14.10;99.90;;;;;;5063110;28;20439;-54
2022/04/13 01:03:25;;;;;;;14.63;8.00;;;14.00;99.90;;;;;;5046624;28;20770;-54
2022/04/13 01:05:52;;;;;;;13.18;8.10;;;13.90;99.90;;;;;;5058510;28;20463;-54
2022/04/13 01:08:19;;;;;;;14.40;7.50;;;13.90;99.90;;;;;;5059291;28;20417;-54
2022/04/13 01:10:49;;;;;;;16.17;8.13;;;13.80;99.90;;;;;;5061111;28;20418;-54
2022/04/13 01:13:18;;;;;;;12.57;7.50;;;13.90;99.90;;;;;;5060413;28;20402;-54
2022/04/13 01:15:45;;;;;;;13.00;7.22;;;13.80;99.90;;;;;;5061931;28;20865;-54
2022/04/13 01:18:13;;;;;;;13.85;7.72;;;13.60;99.90;;;;;;5061563;28;20380;-54
2022/04/13 01:20:52;;;;;;;13.65;8.00;;;13.50;1.00;;;;;;5062314;28;20463;-54
2022/04/13 01:23:20;;;;;;;17.08;8.10;;;13.40;1.00;;;;;;5047961;28;20406;-54
2022/04/13 01:25:54;;;;;;;14.75;8.00;;;13.30;1.00;;;;;;5062120;28;20383;-54
2022/04/13 01:28:21;;;;;;;14.15;7.28;;;13.10;1.00;;;;;;5062675;28;20412;-54
2022/04/13 01:30:47;;;;;;;13.27;7.90;;;13.10;34.20;;;;;;5063051;28;20396;-54
2022/04/13 01:33:13;;;;;;;13.70;7.15;;;13.10;13.00;;;;;;5063887;28;20399;-54
2022/04/13 01:35:39;;;;;;;15.43;7.90;;;13.10;1.50;;;;;;5064568;28;20404;-54
2022/04/13 01:38:06;;;;;;;12.60;7.32;;;12.90;99.90;;;;;;5043250;28;20390;-53
2022/04/13 01:40:31;;;;;;;13.23;7.80;;;12.80;99.90;;;;;;5061891;28;20936;-54
2022/04/13 01:42:57;;;;;;;13.73;7.43;;;12.90;99.90;;;;;;5064480;28;20380;-54
2022/04/13 01:45:23;;;;;;;13.25;7.80;;;12.90;99.90;;;;;;5061828;28;20387;-54
2022/04/13 01:47:49;;;;;;;11.70;7.20;;;12.90;81.00;;;;;;5061417;28;20509;-54
2022/04/13 01:50:16;;;;;;;12.45;6.82;;;12.90;52.40;;;;;;5045338;28;20528;-54
2022/04/13 01:52:46;;;;;;;11.75;7.10;;;12.90;99.90;;;;;;5067892;28;20395;-54
2022/04/13 01:55:12;;;;;;;12.00;6.40;;;12.90;1.00;;;;;;5062712;28;20376;-54
2022/04/13 01:57:38;;;;;;;10.95;6.40;;;13.00;1.00;;;;;;5062727;28;20474;-54
2022/04/13 02:00:06;;;;;;;14.32;7.15;;;13.00;1.00;;;;;;5060922;28;20386;-54
2022/04/13 02:02:32;;;;;;;11.77;6.60;;;12.90;1.00;;;;;;5061227;28;20521;-54
2022/04/13 02:04:58;;;;;;;11.32;7.00;;;12.70;31.30;;;;;;5059901;28;20465;-54
2022/04/13 02:07:24;;;;;;;12.05;6.57;;;12.70;99.90;;;;;;5042085;28;20522;-55
2022/04/13 02:09:49;;;;;;;11.55;7.18;;;12.70;99.90;;;;;;5040975;28;20468;-54
2022/04/13 02:12:15;;;;;;;12.07;6.77;;;12.80;27.60;;;;;;5060669;28;20869;-54
2022/04/13 02:14:41;;;;;;;13.82;6.47;;;12.70;1.00;;;;;;5059734;28;20377;-54
2022/04/13 02:17:07;;;;;;;11.20;6.65;;;12.70;11.30;;;;;;5061373;28;20520;-54
2022/04/13 02:19:33;;;;;;;13.20;7.00;;;12.70;9.60;;;;;;5058971;28;20393;-54
2022/04/13 02:21:59;;;;;;;12.63;7.10;;;12.70;56.90;;;;;;5077604;28;20884;-54
2022/04/13 02:24:24;;;;;;;12.55;6.90;;;12.50;99.90;;;;;;5079705;28;20385;-54
2022/04/13 02:26:50;;;;;;;12.00;7.35;;;12.30;99.90;;;;;;5081410;28;20509;-55
2022/04/13 02:29:16;;;;;;;10.97;7.10;;;12.40;99.90;;;;;;5061509;28;20478;-54
2022/04/13 02:31:41;;;;;;;14.38;7.90;;;12.50;99.90;;;;;;5080748;28;20879;-54
2022/04/13 02:34:07;;;;;;;11.30;6.63;;;12.50;80.40;;;;;;5080842;28;20442;-54
2022/04/13 02:36:33;;;;;;;11.52;7.00;;;12.60;1.80;;;;;;5078228;28;20394;-55
2022/04/13 02:38:59;;;;;;;11.60;7.30;;;12.70;1.00;;;;;;5081478;28;20745;-54
2022/04/13 02:41:24;;;;;;;13.60;7.38;;;12.70;1.00;;;;;;5078832;28;20908;-54
2022/04/13 02:43:50;;;;;;;13.30;7.47;;;12.60;1.00;;;;;;5081345;28;20891;-54
2022/04/13 02:46:16;;;;;;;11.73;6.90;;;12.50;1.00;;;;;;5061820;28;20763;-54
2022/04/13 02:48:42;;;;;;;13.30;7.40;;;12.50;1.00;;;;;;5078655;28;20963;-54
2022/04/13 02:51:07;;;;;;;13.10;7.13;;;12.40;1.00;;;;;;5061014;28;20477;-54
2022/04/13 02:53:34;;;;;;;12.57;7.23;;;12.20;25.30;;;;;;5080600;28;20390;-62
2022/04/13 02:56:00;;;;;;;14.50;7.55;;;12.20;99.90;;;;;;5080517;28;20429;-54
2022/04/13 02:58:25;;;;;;;14.50;6.83;;;12.10;99.90;;;;;;5080546;28;20378;-54
2022/04/13 03:00:51;;;;;;;12.60;6.90;;;12.10;99.90;;;;;;5080282;28;20416;-54
2022/04/13 03:03:17;;;;;;;13.50;7.33;;;12.20;99.90;;;;;;5079787;28;20389;-54
2022/04/13 03:05:43;;;;;;;14.68;6.90;;;12.10;99.90;;;;;;5078658;28;20876;-54
2022/04/13 03:08:09;;;;;;;12.40;7.43;;;12.10;99.90;;;;;;5078466;28;20398;-54
2022/04/13 03:10:35;;;;;;;12.50;7.30;;;12.10;99.90;;;;;;5079958;28;20392;-54
2022/04/13 03:13:01;;;;;;;11.50;7.18;;;12.10;99.90;;;;;;5081890;28;20458;-54
2022/04/13 03:15:26;;;;;;;13.82;7.60;;;12.20;99.90;;;;;;5080747;28;20397;-54
2022/04/13 03:17:52;;;;;;;11.70;7.00;;;12.20;99.90;;;;;;5080494;28;20403;-54
2022/04/13 03:20:18;;;;;;;15.98;7.53;;;12.20;99.90;;;;;;5074129;28;20432;-54
2022/04/13 03:22:44;;;;;;;13.53;7.93;;;12.20;99.90;;;;;;5060224;28;20865;-54
2022/04/13 03:25:10;;;;;;;15.25;7.70;;;12.20;99.90;;;;;;5059380;28;20391;-54
2022/04/13 03:27:37;;;;;;;12.80;7.00;;;12.20;99.90;;;;;;5059864;28;20905;-54
2022/04/13 03:30:04;;;;;;;12.95;7.65;;;12.10;99.90;;;;;;5058811;28;20491;-53
2022/04/13 03:32:37;;;;;;;13.55;8.25;;;12.00;99.90;;;;;;5062147;28;20421;-54
2022/04/13 03:35:06;;;;;;;13.63;7.70;;;12.10;99.90;;;;;;5050909;28;20477;-54
2022/04/13 03:37:31;;;;;;;12.40;7.30;;;12.10;99.90;;;;;;5069126;28;20402;-57
2022/04/13 03:39:57;;;;;;;12.05;7.55;;;12.10;99.90;;;;;;5067793;28;20383;-54
2022/04/13 03:42:22;;;;;;;18.00;7.50;;;12.00;99.90;;;;;;5063421;28;21013;-54
2022/04/13 03:44:48;;;;;;;13.15;7.78;;;11.90;1.00;;;;;;5060762;28;20384;-54
2022/04/13 03:47:14;;;;;;;14.00;7.30;;;11.90;1.00;;;;;;5059700;28;20407;-54
2022/04/13 03:49:39;;;;;;;12.10;7.80;;;11.90;99.90;;;;;;5057390;28;20420;-54
2022/04/13 03:52:05;;;;;;;14.90;7.60;;;11.90;1.00;;;;;;5060428;28;20396;-54
2022/04/13 03:54:31;;;;;;;12.98;6.97;;;11.80;1.00;;;;;;5056619;28;20446;-54
2022/04/13 03:56:56;;;;;;;12.15;6.90;;;11.70;80.50;;;;;;5060498;28;20480;-54
2022/04/13 03:59:23;;;;;;;13.90;7.30;;;11.60;99.90;;;;;;5056415;28;20468;-54
2022/04/13 04:01:49;;;;;;;11.88;6.50;;;11.60;99.90;;;;;;5060963;28;20751;-54
2022/04/13 04:04:15;;;;;;;13.13;6.90;;;11.70;99.90;;;;;;5058329;28;20468;-54
2022/04/13 04:06:41;;;;;;;13.23;7.50;;;11.70;99.90;;;;;;5056183;28;20518;-54
2022/04/13 04:09:06;;;;;;;12.27;6.55;;;11.70;99.90;;;;;;5056587;28;20455;-54
2022/04/13 04:11:32;;;;;;;12.00;6.40;;;11.60;99.90;;;;;;5061560;28;21003;-54
2022/04/13 04:13:58;;;;;;;12.15;6.93;;;11.70;99.90;;;;;;5063037;28;20739;-54
2022/04/13 04:16:23;;;;;;;13.73;7.53;;;11.70;16.40;;;;;;5062270;28;20427;-54
2022/04/13 04:18:50;;;;;;;12.90;7.28;;;11.60;1.00;;;;;;5057525;28;20390;-55
2022/04/13 04:21:16;;;;;;;12.80;6.50;;;11.40;99.90;;;;;;5064329;28;20412;-54
2022/04/13 04:23:42;;;;;;;15.38;7.40;;;11.30;99.90;;;;;;5056783;28;20402;-54
2022/04/13 04:26:08;;;;;;;11.48;6.50;;;11.10;1.00;;;;;;5060086;28;20410;-53
2022/04/13 04:28:34;;;;;;;13.25;7.60;;;11.00;99.90;;;;;;5052640;28;20410;-54
2022/04/13 04:31:01;;;;;;;12.50;7.28;;;11.00;1.00;;;;;;5053813;28;20428;-54
2022/04/13 04:33:26;;;;;;;13.35;7.15;;;11.00;1.00;;;;;;5065394;28;20771;-54
2022/04/13 04:35:52;;;;;;;14.43;6.70;;;11.00;52.40;;;;;;5063549;28;20399;-54
2022/04/13 04:38:19;;;;;;;13.87;7.57;;;11.00;1.00;;;;;;5071438;28;20544;-54
2022/04/13 04:40:44;;;;;;;12.80;6.57;;;11.00;1.00;;;;;;5068973;28;20390;-54
2022/04/13 04:43:10;;;;;;;14.40;7.00;;;11.10;1.00;;;;;;5065258;28;20485;-54
2022/04/13 04:45:36;;;;;;;15.10;7.45;;;11.20;99.90;;;;;;5065342;28;20392;-56
2022/04/13 04:48:05;;;;;;;14.53;7.27;;;11.20;37.00;;;;;;5070634;28;20458;-54
2022/04/13 04:50:32;;;;;;;11.80;6.53;;;11.10;53.60;;;;;;5065985;28;20515;-54
2022/04/13 04:52:57;;;;;;;14.23;7.40;;;11.10;1.00;;;;;;5072175;28;20433;-54
2022/04/13 04:55:23;;;;;;;15.68;6.88;;;11.00;99.90;;;;;;5066339;28;20407;-54
2022/04/13 04:57:49;;;;;;;11.82;7.15;;;10.90;1.00;;;;;;5063805;28;20403;-54
2022/04/13 05:00:19;;;;;;;12.13;6.80;;;10.90;99.90;;;;;;5062267;28;20391;-54
2022/04/13 05:02:48;;;;;;;11.77;6.50;;;10.80;99.90;;;;;;5061340;28;20413;-54
2022/04/13 05:05:15;;;;;;;11.80;7.90;;;10.80;99.90;;;;;;5062382;28;20464;-54
2022/04/13 05:07:41;;;;;;;13.57;7.40;;;10.70;1.00;;;;;;5058256;28;20498;-54
2022/04/13 05:10:07;;;;;;;15.93;7.07;;;10.70;99.90;;;;;;5069481;28;20390;-54
2022/04/13 05:12:42;;;;;;;12.10;6.53;;;10.80;99.90;;;;;;5067994;28;20746;-54
2022/04/13 05:15:08;;;;;;;12.35;7.40;;;10.90;99.90;;;;;;5064495;28;20431;-54
2022/04/13 05:17:34;;;;;;;12.07;6.90;;;10.90;99.90;;;;;;5058688;28;20437;-54
2022/04/13 05:19:59;;;;;;;13.93;6.70;;;11.00;99.90;;;;;;5068204;28;20481;-54
2022/04/13 05:22:25;;;;;;;12.10;7.27;;;11.30;99.90;;;;;;5061472;28;20617;-54
2022/04/13 05:24:51;;;;;;;15.30;7.10;;;11.60;1.00;;;;;;5064460;28;20395;-54
2022/04/13 05:27:16;;;;;;;14.20;6.90;;;12.10;99.90;;;;;;5071079;28;20876;-54
2022/04/13 05:29:42;;;;;;;12.90;6.90;;;12.50;1.00;;;;;;5056358;28;20477;-54
2022/04/13 05:32:08;;;;;;;15.27;6.95;;;12.70;99.90;;;;;;5055576;28;20393;-54
2022/04/13 05:34:33;;;;;;;15.63;7.20;;;13.10;1.00;;;;;;5059503;28;20744;-54
2022/04/13 05:36:59;;;;;;;15.32;6.97;;;13.30;1.00;;;;;;5055460;28;20389;-54
2022/04/13 05:39:25;;;;;;;12.93;6.90;;;13.60;99.90;;;;;;5064951;28;20385;-54
2022/04/13 05:41:51;;;;;;;11.80;7.03;;;13.80;99.90;;;;;;5058569;28;20398;-54
2022/04/13 05:44:16;;;;;;;11.60;6.70;;;14.00;99.90;;;;;;5069204;28;20395;-55
2022/04/13 05:46:42;;;;;;;15.15;6.57;;;14.30;99.90;;;;;;5060140;28;20411;-55
2022/04/13 05:49:08;;;;;;;12.10;6.80;;;14.50;56.70;;;;;;5059996;28;20408;-54
2022/04/13 05:51:33;;;;;;;14.37;7.40;;;14.80;1.00;;;;;;5062061;28;20408;-55
2022/04/13 05:53:59;;;;;;;12.05;6.50;;;15.00;1.00;;;;;;5051451;28;20472;-55
2022/04/13 05:56:25;;;;;;;13.75;7.60;;;15.30;1.00;;;;;;5062259;28;20952;-55
2022/04/13 05:58:50;;;;;;;14.37;7.70;;;15.50;1.00;;;;;;5062078;28;20781;-55
2022/04/13 06:01:16;;;;;;;13.15;7.10;;;15.70;1.00;;;;;;5061888;28;20737;-55
2022/04/13 06:03:42;;;;;;;14.13;9.00;;;16.10;1.00;;;;;;5068302;28;20461;-55
2022/04/13 06:06:07;;;;;;;14.27;8.13;;;16.40;1.00;;;;;;5061544;28;20861;-55
2022/04/13 06:08:33;;;;;;;14.73;8.23;;;17.10;1.00;;;;;;5055510;28;20388;-55
2022/04/13 06:10:59;;;;;;;13.97;8.33;;;17.60;99.90;;;;;;5056837;28;20397;-55
2022/04/13 06:13:25;;;;;;;12.25;7.90;;;18.00;99.90;;;;;;5067457;28;20415;-53
2022/04/13 06:15:50;;;;;;;13.40;7.90;;;18.30;99.90;;;;;;5056035;28;20966;-53
2022/04/13 06:18:16;;;;;;;17.20;7.60;;;18.40;99.90;;;;;;5041397;28;21006;-53
2022/04/13 06:20:42;;;;;;;11.43;6.83;;;18.50;99.90;;;;;;5069586;28;20414;-54
2022/04/13 06:23:07;;;;;;;12.88;7.50;;;19.00;99.90;;;;;;5083536;28;20477;-53
2022/04/13 06:25:33;;;;;;;15.00;8.00;;;19.20;99.90;;;;;;5076096;28;20409;-53
2022/04/13 06:28:01;;;;;;;13.18;7.80;;;19.70;99.90;;;;;;5081001;28;21271;-56
2022/04/13 06:30:27;;;;;;;12.43;7.50;;;20.40;99.90;;;;;;5069633;28;20384;-59
2022/04/13 06:32:52;;;;;;;13.27;7.60;;;20.50;99.90;;;;;;5084695;28;20791;-56
2022/04/13 06:35:18;;;;;;;15.50;7.88;;;20.70;99.90;;;;;;5089969;28;20439;-56
2022/04/13 06:37:46;;;;;;;15.33;7.40;;;20.30;99.90;;;;;;5091143;28;20406;-57
2022/04/13 06:40:13;;;;;;;14.13;7.83;;;20.60;99.90;;;;;;5076706;28;20441;-55
2022/04/13 06:42:40;;;;;;;16.02;8.68;;;21.10;99.90;;;;;;5071016;28;20387;-58
2022/04/13 06:45:08;;;;;;;12.98;8.40;;;21.10;99.90;;;;;;5085748;28;20382;-56
2022/04/13 06:47:33;;;;;;;12.57;8.13;;;21.50;99.90;;;;;;5090139;28;20413;-56
2022/04/13 06:49:59;;;;;;;11.50;8.00;;;21.70;99.90;;;;;;5090631;28;20390;-56
2022/04/13 06:52:25;;;;;;;14.77;8.30;;;21.80;99.90;;;;;;5089209;28;20378;-58
2022/04/13 06:54:50;;;;;;;15.60;8.67;;;22.00;99.90;;;;;;5090761;28;20371;-56
2022/04/13 06:57:16;;;;;;;14.25;9.00;;;22.30;99.90;;;;;;5071790;28;20401;-56
2022/04/13 06:59:42;;;;;;;14.48;9.32;;;22.70;99.90;;;;;;5067835;28;20401;-56
2022/04/13 07:02:10;;;;;;;14.70;9.63;;;23.10;99.90;;;;;;5090167;28;20480;-54
2022/04/13 07:04:40;;;;;;;12.33;7.67;;;23.40;99.90;;;;;;5089723;28;20473;-54
2022/04/13 07:07:05;;;;;;;15.43;8.32;;;23.20;99.90;;;;;;5082834;28;20883;-54
2022/04/13 07:09:31;;;;;;;13.68;9.85;;;23.30;99.90;;;;;;5078643;28;20391;-54
2022/04/13 07:11:57;;;;;;;21.95;13.50;;;24.00;99.90;;;;;;5080264;28;20388;-54
2022/04/13 07:14:23;;;;;;;16.95;13.75;;;24.40;99.90;;;;;;5075548;28;20533;-54
2022/04/13 07:16:49;;;;;;;14.75;10.32;;;25.00;99.90;;;;;;5079994;28;20396;-54
2022/04/13 07:19:14;;;;;;;14.70;11.90;;;25.50;99.90;;;;;;5057953;28;20817;-54
2022/04/13 07:21:40;;;;;;;16.60;10.80;;;24.80;99.90;;;;;;5065479;28;21011;-54
2022/04/13 07:24:06;;;;;;;13.30;11.87;;;25.10;99.90;;;;;;5061179;28;20492;-56
2022/04/13 07:26:32;;;;;;;16.30;11.27;;;25.30;99.90;;;;;;5061408;28;20554;-56
2022/04/13 07:28:58;;;;;;;13.10;8.67;;;25.50;99.90;;;;;;5068477;28;20486;-57
2022/04/13 07:31:24;;;;;;;17.13;15.32;;;25.60;99.90;;;;;;5051222;28;20753;-54
2022/04/13 07:33:50;;;;;;;14.60;11.65;;;25.00;99.90;;;;;;5061767;28;20399;-54
2022/04/13 07:36:16;;;;;;;15.10;11.68;;;24.70;99.90;;;;;;5060288;28;20392;-53
2022/04/13 07:38:42;;;;;;;14.73;12.73;;;24.80;99.90;;;;;;5044779;28;20403;-54
2022/04/13 07:41:07;;;;;;;16.47;12.10;;;25.10;99.90;;;;;;5060665;28;20393;-54
2022/04/13 07:43:33;;;;;;;13.50;12.10;;;25.00;99.90;;;;;;5059776;28;20500;-57
2022/04/13 07:45:59;;;;;;;13.60;12.20;;;25.00;99.90;;;;;;5065319;28;20387;-57
2022/04/13 07:48:25;;;;;;;20.05;18.35;;;25.70;99.90;;;;;;5061749;28;20932;-57
2022/04/13 07:50:50;;;;;;;16.60;14.90;;;26.50;99.90;;;;;;5066915;28;20416;-57
2022/04/13 07:53:16;;;;;;;18.08;11.77;;;26.40;99.90;;;;;;5060342;28;20943;-56
2022/04/13 07:55:42;;;;;;;14.85;13.30;;;26.40;99.90;;;;;;5061135;28;20464;-57
2022/04/13 07:58:07;;;;;;;14.77;13.00;;;26.40;99.90;;;;;;5053294;28;20380;-57
2022/04/13 08:00:33;;;;;;;16.85;13.70;;;26.30;99.90;;;;;;5038657;28;21207;-57
2022/04/13 08:02:59;;;;;;;16.90;13.55;;;26.40;99.90;;;;;;5062435;28;20838;-57
2022/04/13 08:05:25;;;;;;;15.15;13.57;;;27.00;99.90;;;;;;5068375;28;20416;-57
2022/04/13 08:07:52;;;;;;;14.53;13.03;;;26.70;99.90;;;;;;5056150;28;20890;-57
2022/04/13 08:10:17;;;;;;;16.25;14.00;;;26.60;99.90;;;;;;5060585;28;20396;-57
2022/04/13 08:12:46;;;;;;;14.82;13.23;;;26.50;99.90;;;;;;5067273;28;20423;-57
2022/04/13 08:15:13;;;;;;;13.48;10.93;;;26.40;99.90;;;;;;5062037;28;20433;-57
2022/04/13 08:17:39;;;;;;;14.75;12.88;;;26.40;99.90;;;;;;5062623;28;20400;-57
2022/04/13 08:20:10;;;;;;;16.77;11.40;;;26.20;99.90;;;;;;5061363;28;20399;-57
2022/04/13 08:22:35;;;;;;;14.30;10.25;;;26.30;99.90;;;;;;5061853;28;20459;-57
2022/04/13 08:25:01;;;;;;;10.93;9.80;;;26.60;99.90;;;;;;5043788;28;20805;-57
2022/04/13 08:27:27;;;;;;;12.53;8.07;;;27.30;99.90;;;;;;5039499;28;20406;-57
2022/04/13 08:29:53;;;;;;;13.23;9.00;;;28.00;99.90;;;;;;5060369;28;20868;-57
2022/04/13 08:32:19;;;;;;;12.63;10.30;;;28.10;99.90;;;;;;5070565;28;20404;-57
2022/04/13 08:34:46;;;;;;;12.83;7.03;;;;;;;;;;5066067;28;20904;-56
2022/04/13 08:37:12;;;;;;;9.73;5.85;;;;;;;;;;5057875;28;20445;-55
2022/04/13 08:39:39;;;;;;;14.23;12.93;;;;;;;;;;5063298;28;20377;-55
2022/04/13 08:42:12;;;;;;;9.63;4.30;;;;;;;;;;5064783;28;20422;-55
2022/04/13 08:44:44;;;;;;;12.67;3.90;;;;;;;;;;5066369;28;20803;-54
2022/04/13 08:47:15;;;;;;;10.02;3.60;;;;;;;;;;5055799;28;20418;-57
2022/04/13 08:49:43;;;;;;;7.13;3.28;;;;;;;;;;5064615;28;20743;-56
2022/04/13 08:52:10;;;;;;;9.73;4.60;;;;;;;;;;5054020;28;20408;-57
2022/04/13 08:54:41;;;;;;;9.02;8.05;;;;;;;;;;5057317;28;20376;-57
2022/04/13 08:57:11;;;;;;;8.95;2.10;;;;;;;;;;5065527;28;20473;-56
2022/04/13 08:59:37;;;;;;;7.30;3.00;;;;;;;;;;5053200;28;20385;-57
2022/04/13 09:02:17;;;;;;;11.25;3.10;;;;;;;;;;5069419;28;20461;-56
2022/04/13 09:04:45;;;;;;;7.03;2.88;;;29.50;1.00;;;;;;5054387;28;20483;-55
2022/04/13 09:07:16;;;;;;;5.90;2.60;;;29.90;99.90;;;;;;5062894;28;20426;-54
2022/04/13 09:09:46;;;;;;;12.80;3.73;;;29.60;99.90;;;;;;5043105;28;20401;-55
2022/04/13 09:12:13;;;;;;;7.53;2.80;;;30.10;99.90;;;;;;5063373;28;20487;-55
2022/04/13 09:14:40;;;;;;;10.40;3.30;;;30.30;99.90;;;;;;5044171;28;20399;-55
2022/04/13 09:17:07;;;;;;;9.48;3.55;;;30.30;99.90;;;;;;5058821;28;20849;-55
2022/04/13 09:19:33;;;;;;;8.73;3.60;;;30.60;99.90;;;;;;5051920;28;21012;-55
2022/04/13 09:21:59;;;;;;;7.22;3.10;;;30.30;99.90;;;;;;5078231;28;20417;-55
2022/04/13 09:24:27;;;;;;;7.45;3.08;;;30.20;99.90;;;;;;5080842;28;20389;-55
2022/04/13 09:26:54;;;;;;;8.40;3.23;;;30.50;99.90;;;;;;5080713;28;20499;-55
2022/04/13 09:29:20;;;;;;;13.10;5.70;;;31.10;99.90;;;;;;5078962;28;20474;-55
2022/04/13 09:31:46;;;;;;;10.68;3.80;;;31.50;99.90;;;;;;5082255;28;20976;-55
2022/04/13 09:34:12;;;;;;;8.80;3.40;;;31.40;99.90;;;;;;5083868;28;20398;-57
2022/04/13 09:36:38;;;;;;;9.20;3.30;;;31.50;99.90;;;;;;5080589;28;20388;-55
2022/04/13 09:39:04;;;;;;;9.45;2.80;;;31.80;1.00;;;;;;5080504;28;20893;-56
2022/04/13 09:41:38;;;;;;;9.63;3.77;;;31.70;1.00;;;;;;5081183;28;20382;-55
2022/04/13 09:44:15;;;;;;;10.23;3.27;;;31.40;1.00;;;;;;5064279;28;20414;-56
2022/04/13 09:46:42;;;;;;;9.20;3.10;;;31.30;1.00;;;;;;5081221;28;20899;-56
2022/04/13 09:49:12;;;;;;;8.18;3.30;;;30.90;1.00;;;;;;5065296;28;20404;-56
2022/04/13 09:51:39;;;;;;;7.30;2.90;;;30.80;1.00;;;;;;5067237;28;20492;-55
2022/04/13 09:54:09;;;;;;;8.13;5.30;;;30.40;1.00;;;;;;5079725;28;20845;-56
2022/04/13 09:56:44;;;;;;;11.27;7.53;;;29.40;1.00;;;;;;5085463;28;20396;-55
2022/04/13 09:59:10;;;;;;;8.70;7.20;;;29.40;1.00;;;;;;5086629;28;20778;-55
2022/04/13 10:01:36;;;;;;;9.00;7.30;;;30.00;1.00;;;;;;5087047;28;20390;-55
2022/04/13 10:04:03;;;;;;;9.30;7.47;;;30.10;1.00;;;;;;5089970;28;20390;-56
2022/04/13 10:06:35;;;;;;;9.75;6.57;;;30.00;1.00;;;;;;5084528;28;20768;-56
2022/04/13 10:09:08;;;;;;;9.20;4.50;;;29.70;1.00;;;;;;5073171;28;20391;-56
2022/04/13 10:11:34;;;;;;;5.65;1.80;;;30.10;1.00;;;;;;5076249;28;20384;-56
2022/04/13 10:14:06;;;;;;;6.80;1.90;;;30.30;1.00;;;;;;5079640;28;20871;-56
2022/04/13 10:16:34;;;;;;;8.52;2.22;;;30.00;1.00;;;;;;5061779;28;20444;-56
2022/04/13 10:19:04;;;;;;;8.23;2.28;;;30.10;1.00;;;;;;5080193;28;20388;-56
2022/04/13 10:21:35;;;;;;;7.47;1.90;;;30.10;1.00;;;;;;5084936;28;20394;-56
2022/04/13 10:24:02;;;;;;;9.30;1.80;;;29.90;1.00;;;;;;5062371;28;20393;-56
2022/04/13 10:26:28;;;;;;;8.13;2.50;;;30.00;1.00;;;;;;5080882;28;20416;-56
2022/04/13 10:28:54;;;;;;;10.20;7.32;;;30.40;1.00;;;;;;5079299;28;20406;-57
2022/04/13 10:31:20;;;;;;;8.95;7.05;;;29.70;1.00;;;;;;5072142;28;20944;-56
2022/04/13 10:33:50;;;;;;;10.63;8.98;;;29.80;1.00;;;;;;5066801;28;20448;-56
2022/04/13 10:36:19;;;;;;;10.18;7.00;;;30.10;1.00;;;;;;5082624;28;20475;-56
2022/04/13 10:38:45;;;;;;;10.82;6.90;;;30.40;1.00;;;;;;5088259;28;20393;-55
2022/04/13 10:41:17;;;;;;;9.90;6.70;;;30.40;1.00;;;;;;5084986;28;20419;-55
2022/04/13 10:43:49;;;;;;;11.03;6.80;;;29.90;1.00;;;;;;5088100;28;20432;-55
2022/04/13 10:46:18;;;;;;;8.93;7.50;;;29.20;1.00;;;;;;5071686;28;20751;-55
2022/04/13 10:48:46;;;;;;;10.98;7.35;;;29.60;1.00;;;;;;5070440;28;20383;-55
2022/04/13 10:51:19;;;;;;;8.38;6.18;;;28.60;1.00;;;;;;5070566;28;20469;-55
2022/04/13 10:53:59;;;;;;;9.27;8.10;;;28.40;1.00;;;;;;5080733;28;20437;-55
2022/04/13 10:56:28;;;;;;;8.20;7.30;;;28.30;1.00;;;;;;5080133;28;20418;-55
2022/04/13 10:59:15;;;;;;;11.95;7.43;;;28.10;1.00;;;;;;5069800;28;20415;-55
2022/04/13 11:02:06;;;;;;;10.65;7.45;;;27.70;1.00;;;;;;5073003;28;20425;-55
2022/04/13 11:04:33;;;;;;;8.98;7.80;;;27.70;1.00;;;;;;5043986;28;20399;-56
2022/04/13 11:07:00;;;;;;;11.13;7.28;;;27.80;1.00;;;;;;5085292;28;20401;-56
2022/04/13 11:09:30;;;;;;;10.15;7.88;;;28.10;1.00;;;;;;5086613;28;20414;-56
2022/04/13 11:11:58;;;;;;;14.73;6.97;;;27.90;1.00;;;;;;5080958;28;20418;-57
2022/04/13 11:14:24;;;;;;;10.65;7.20;;;27.90;1.00;;;;;;5078098;28;20481;-57
2022/04/13 11:17:05;;;;;;;14.55;7.57;;;28.10;1.00;;;;;;5083966;28;20888;-57
2022/04/13 11:19:31;;;;;;;10.25;7.32;;;28.10;1.00;;;;;;5080590;28;20401;-57
2022/04/13 11:21:57;;;;;;;9.93;7.63;;;28.00;1.00;;;;;;5057685;28;20812;-56
2022/04/13 11:24:33;;;;;;;11.63;7.30;;;27.70;1.00;;;;;;5073053;28;20400;-57
2022/04/13 11:27:00;;;;;;;10.93;8.40;;;27.60;1.00;;;;;;5070356;28;20446;-57
2022/04/13 11:29:33;;;;;;;10.55;9.07;;;27.90;1.00;;;;;;5069007;28;20491;-57
2022/04/13 11:32:02;;;;;;;12.20;8.30;;;27.70;1.00;;;;;;5070252;28;20857;-57
2022/04/13 11:34:50;;;;;;;8.77;7.97;;;27.30;1.00;;;;;;5068712;28;20460;-57
2022/04/13 11:37:21;;;;;;;8.50;7.13;;;26.90;1.00;;;;;;5068985;28;20371;-56
2022/04/13 11:39:57;;;;;;;9.23;7.07;;;26.70;1.00;;;;;;5069867;28;20376;-56
2022/04/13 11:42:25;;;;;;;13.18;6.85;;;27.20;1.00;;;;;;5089549;28;20389;-57
2022/04/13 11:45:07;;;;;;;10.07;7.20;;;27.20;1.00;;;;;;5084206;28;20407;-56
2022/04/13 11:47:39;;;;;;;8.00;6.40;;;26.90;1.00;;;;;;5080670;28;20886;-56
2022/04/13 11:50:24;;;;;;;10.20;6.15;;;26.50;1.00;;;;;;5080084;28;20438;-56
2022/04/13 11:53:12;;;;;;;12.25;7.80;;;26.50;1.00;;;;;;5081450;28;20412;-57
2022/04/13 11:55:42;;;;;;;11.35;6.32;;;26.80;1.00;;;;;;5077558;28;20473;-57
2022/04/13 11:58:07;;;;;;;11.10;6.97;;;27.00;1.00;;;;;;5078719;28;20818;-56
2022/04/13 12:00:37;;;;;;;11.35;7.80;;;26.90;1.00;;;;;;5080622;28;20414;-56
2022/04/13 12:03:12;;;;;;;8.88;6.65;;;26.60;1.00;;;;;;5072895;28;20395;-57
2022/04/13 12:05:40;;;;;;;10.38;7.00;;;26.80;1.00;;;;;;5083992;28;20736;-56
2022/04/13 12:08:11;;;;;;;11.60;6.78;;;27.30;1.00;;;;;;5070278;28;20815;-57
2022/04/13 12:10:39;;;;;;;10.50;6.97;;;27.40;1.00;;;;;;5070701;28;20873;-56
2022/04/13 12:13:04;;;;;;;16.40;7.07;;;27.60;1.00;;;;;;5053335;28;20384;-57
2022/04/13 12:15:43;;;;;;;8.55;6.75;;;27.50;1.00;;;;;;5088757;28;20920;-57
2022/04/13 12:18:10;;;;;;;9.43;6.47;;;27.90;1.00;;;;;;5089456;28;20404;-57
2022/04/13 12:20:36;;;;;;;9.98;7.40;;;27.80;1.00;;;;;;5081070;28;20431;-57
2022/04/13 12:23:26;;;;;;;8.40;7.00;;;27.80;1.00;;;;;;5060612;28;20524;-56
2022/04/13 12:25:56;;;;;;;12.25;7.60;;;27.30;1.00;;;;;;5040642;28;20808;-56
2022/04/13 12:28:23;;;;;;;11.10;7.50;;;27.50;1.00;;;;;;5061961;28;20425;-57
2022/04/13 12:31:09;;;;;;;10.70;8.00;;;27.50;1.00;;;;;;5060247;28;20470;-57
2022/04/13 12:33:37;;;;;;;9.75;7.53;;;27.60;1.00;;;;;;5066045;28;20773;-57
2022/04/13 12:36:11;;;;;;;9.50;7.90;;;27.40;1.00;;;;;;5046106;28;20392;-56
2022/04/13 12:38:41;;;;;;;9.40;7.70;;;27.20;1.00;;;;;;5066042;28;20748;-57
2022/04/13 12:41:16;;;;;;;8.20;7.13;;;27.20;1.00;;;;;;5067724;28;20407;-57
2022/04/13 12:44:04;;;;;;;11.68;7.00;;;27.30;1.00;;;;;;5064358;28;20402;-57
2022/04/13 12:46:31;;;;;;;10.93;6.30;;;27.30;1.00;;;;;;5058679;28;20903;-55
2022/04/13 12:49:03;;;;;;;11.05;5.80;;;27.10;1.00;;;;;;5045589;28;20399;-55